Time;durP1;ratioP1;P1;durP2;ratioP2;P2;SDS_P1;SDS_P2;PMS_P1;PMS_P2;Temp;Humidity;BMP_temperature;BMP_pressure;BME280_temperature;BME280_humidity;BME280_pressure;Samples;Min_cycle;Max_cycle;Signal;HPM_P1;HPM_P2
2023/06/30 00:00:30;;;;;;;7.68;4.78;;;;;;;20.97;52.98;95289.38;4968106;28;20181;-79
2023/06/30 00:02:56;;;;;;;6.10;5.35;;;;;;;20.94;53.03;95293.28;4959221;28;20948;-79
2023/06/30 00:05:22;;;;;;;7.25;4.32;;;;;;;20.88;53.53;95288.88;4963905;28;20758;-79
2023/06/30 00:07:48;;;;;;;8.15;4.75;;;;;;;20.90;53.24;95287.59;4965435;28;20200;-79
2023/06/30 00:10:13;;;;;;;7.00;4.65;;;;;;;20.93;53.19;95278.44;4968848;28;20181;-79
2023/06/30 00:12:38;;;;;;;9.05;4.65;;;;;;;20.88;53.54;95278.31;4975349;28;20213;-79
2023/06/30 00:15:04;;;;;;;8.07;4.32;;;;;;;20.89;53.45;95280.72;4965434;28;20347;-79
2023/06/30 00:17:30;;;;;;;6.75;5.03;;;;;;;20.87;53.75;95274.88;4967596;28;20197;-79
2023/06/30 00:19:58;;;;;;;5.18;4.25;;;;;;;20.96;53.36;95267.47;4972324;28;20247;-79
2023/06/30 00:22:24;;;;;;;6.50;5.00;;;;;;;20.91;53.53;95269.94;4968593;28;20208;-79
2023/06/30 00:24:54;;;;;;;7.88;5.07;;;;;;;20.88;53.67;95268.56;4964663;28;20228;-79
2023/06/30 00:27:19;;;;;;;5.03;4.53;;;;;;;20.82;53.74;95258.06;4957564;28;20779;-78
2023/06/30 00:29:44;;;;;;;8.45;4.53;;;;;;;20.78;54.10;95249.78;4973368;28;20220;-78
2023/06/30 00:32:10;;;;;;;5.90;4.70;;;;;;;20.81;53.82;95244.06;4965734;28;20188;-78
2023/06/30 00:34:35;;;;;;;6.32;4.93;;;;;;;20.80;54.06;95246.91;4962089;28;20216;-79
2023/06/30 00:37:00;;;;;;;5.30;4.40;;;;;;;20.86;53.93;95248.69;4973309;28;20192;-79
2023/06/30 00:39:25;;;;;;;6.10;4.85;;;;;;;20.78;53.88;95248.97;4972553;28;20565;-79
2023/06/30 00:41:51;;;;;;;6.13;4.85;;;;;;;20.61;54.53;95246.88;4948313;28;20219;-79
2023/06/30 00:44:16;;;;;;;6.22;4.78;;;;;;;20.65;54.47;95239.34;4968938;28;20204;-79
2023/06/30 00:46:41;;;;;;;6.68;4.60;;;;;;;20.57;55.04;95237.78;4976025;28;20224;-79
2023/06/30 00:49:07;;;;;;;6.50;5.43;;;;;;;20.51;55.43;95238.66;4968464;28;20201;-78
2023/06/30 00:51:32;;;;;;;9.15;4.93;;;;;;;20.47;55.70;95240.09;4964603;28;20197;-78
2023/06/30 00:53:57;;;;;;;6.95;5.32;;;;;;;20.52;55.04;95229.72;4944195;28;20248;-78
2023/06/30 00:56:23;;;;;;;7.28;4.90;;;;;;;20.50;55.19;95229.16;4970877;28;20195;-78
2023/06/30 00:58:48;;;;;;;11.43;5.45;;;;;;;20.49;55.52;95230.16;4962260;28;20215;-78
2023/06/30 01:01:34;;;;;;;8.48;4.93;;;;;;;20.51;55.52;95228.13;4970907;28;20213;-78
2023/06/30 01:04:23;;;;;;;5.65;4.88;;;;;;;20.29;56.56;95235.56;4947846;28;20271;-77
2023/06/30 01:07:30;;;;;;;7.45;4.80;;;;;;;20.35;56.48;95237.34;4963016;28;20193;-78
2023/06/30 01:10:12;;;;;;;7.60;5.13;;;;;;;20.34;56.47;95232.28;4898237;29;20202;-78
2023/06/30 01:12:38;;;;;;;8.45;5.57;;;;;;;20.47;55.66;95223.47;4898405;29;20191;-78
2023/06/30 01:15:05;;;;;;;6.72;4.78;;;;;;;20.48;55.65;95225.91;4897660;29;20322;-76
2023/06/30 01:17:31;;;;;;;6.03;4.43;;;;;;;20.41;55.95;95230.41;4867431;29;20235;-77
2023/06/30 01:19:58;;;;;;;5.70;4.55;;;;;;;20.42;56.15;95224.09;4897813;29;20732;-77
2023/06/30 01:22:40;;;;;;;5.07;4.50;;;;;;;20.42;56.17;95224.09;4882773;29;20219;-77
2023/06/30 01:25:09;;;;;;;7.13;4.68;;;;;;;20.33;56.32;95222.78;4898565;29;20268;-78
2023/06/30 01:27:36;;;;;;;6.95;5.13;;;;;;;20.33;56.09;95222.78;4877305;29;20235;-77
2023/06/30 01:30:03;;;;;;;8.25;5.53;;;;;;;20.26;56.94;95222.81;4898999;29;20199;-78
2023/06/30 01:32:29;;;;;;;10.52;4.97;;;;;;;20.22;57.10;95226.09;4897909;29;20723;-77
2023/06/30 01:34:55;;;;;;;7.22;4.60;;;;;;;20.28;56.36;95217.31;4882521;29;20278;-77
2023/06/30 01:37:20;;;;;;;7.00;4.97;;;;;;;20.36;56.37;95211.78;4898743;29;20199;-77
2023/06/30 01:39:46;;;;;;;6.03;4.88;;;;;;;20.33;56.17;95206.94;4908061;28;20207;-78
2023/06/30 01:42:12;;;;;;;6.47;5.00;;;;;;;20.32;56.53;95211.41;4967837;28;20247;-78
2023/06/30 01:44:37;;;;;;;5.47;4.65;;;;;;;20.35;55.92;95208.34;4963124;28;20212;-78
2023/06/30 01:47:04;;;;;;;9.30;5.28;;;;;;;20.34;56.05;95209.38;4952261;28;20188;-78
2023/06/30 01:49:31;;;;;;;8.43;4.45;;;;;;;20.25;56.60;95207.22;4969643;28;20219;-77
2023/06/30 01:51:56;;;;;;;6.10;4.68;;;;;;;20.32;56.29;95192.16;4966011;28;20216;-77
2023/06/30 01:54:22;;;;;;;5.63;4.78;;;;;;;20.30;56.62;95194.19;4959504;28;20212;-78
2023/06/30 01:56:51;;;;;;;6.68;5.25;;;;;;;20.30;56.47;95188.91;4959645;28;20196;-78
2023/06/30 01:59:16;;;;;;;6.55;4.40;;;;;;;20.29;56.04;95187.28;4963891;28;20195;-78
2023/06/30 02:01:42;;;;;;;9.20;4.85;;;;;;;20.13;56.81;95187.84;4975582;28;20203;-78
2023/06/30 02:04:09;;;;;;;6.53;5.10;;;;;;;20.01;57.65;95188.53;4962442;28;20203;-78
2023/06/30 02:06:34;;;;;;;6.00;4.57;;;;;;;20.07;57.04;95185.06;4967995;28;20227;-78
2023/06/30 02:08:59;;;;;;;7.40;4.57;;;;;;;20.08;57.07;95191.94;4959826;28;20610;-78
2023/06/30 02:11:24;;;;;;;6.18;4.90;;;;;;;20.06;57.04;95186.09;4961739;28;20197;-77
2023/06/30 02:13:50;;;;;;;8.85;5.05;;;;;;;20.04;57.58;95201.28;4962290;28;20189;-78
2023/06/30 02:16:15;;;;;;;8.40;4.93;;;;;;;19.99;57.67;95192.41;4959392;28;20196;-79
2023/06/30 02:18:40;;;;;;;7.95;4.90;;;;;;;20.00;57.68;95199.31;4963580;28;20196;-78
2023/06/30 02:21:06;;;;;;;6.72;4.65;;;;;;;20.08;57.46;95197.22;4971079;28;20205;-79
2023/06/30 02:23:31;;;;;;;4.78;4.22;;;;;;;20.17;56.79;95194.31;4944069;28;20185;-79
2023/06/30 02:25:57;;;;;;;5.70;4.50;;;;;;;20.24;56.86;95192.44;4970072;28;20276;-79
2023/06/30 02:28:22;;;;;;;6.97;4.03;;;;;;;20.22;56.44;95191.81;4962975;28;20199;-78
2023/06/30 02:30:48;;;;;;;8.18;5.32;;;;;;;20.16;57.09;95201.41;4961209;28;20489;-77
2023/06/30 02:33:13;;;;;;;7.57;4.97;;;;;;;20.13;57.40;95198.38;4946351;28;20237;-78
2023/06/30 02:35:38;;;;;;;10.23;5.20;;;;;;;20.09;57.27;95185.63;4961179;28;20702;-79
2023/06/30 02:38:05;;;;;;;5.05;4.53;;;;;;;20.16;57.27;95187.41;4967321;28;20191;-78
2023/06/30 02:40:31;;;;;;;6.78;4.53;;;;;;;20.21;57.18;95182.28;4962169;28;20196;-77
2023/06/30 02:42:56;;;;;;;8.48;4.65;;;;;;;20.26;56.37;95182.47;4964662;28;20177;-78
2023/06/30 02:45:21;;;;;;;7.03;4.75;;;;;;;20.23;56.50;95183.72;4949787;28;20200;-77
2023/06/30 02:47:47;;;;;;;4.80;4.15;;;;;;;20.19;56.91;95177.25;4935727;28;20341;-78
2023/06/30 02:50:12;;;;;;;6.57;4.65;;;;;;;20.13;57.14;95188.63;4961510;28;20570;-77
2023/06/30 02:52:37;;;;;;;5.93;5.03;;;;;;;20.21;56.91;95180.47;4967344;28;20189;-78
2023/06/30 02:55:03;;;;;;;7.55;4.72;;;;;;;20.21;56.66;95182.28;4969705;28;20219;-77
2023/06/30 02:57:28;;;;;;;6.18;4.63;;;;;;;20.25;56.90;95175.59;4949965;28;20193;-78
2023/06/30 02:59:53;;;;;;;9.45;4.95;;;;;;;20.27;56.44;95181.44;4963573;28;20176;-78
2023/06/30 03:02:19;;;;;;;6.65;4.68;;;;;;;20.24;56.58;95179.25;4952087;28;20212;-78
2023/06/30 03:04:44;;;;;;;6.97;4.30;;;;;;;20.33;56.56;95184.03;4961885;28;20208;-77
2023/06/30 03:07:10;;;;;;;6.10;4.57;;;;;;;20.31;56.11;95169.41;4961860;28;20211;-79
2023/06/30 03:09:35;;;;;;;7.78;4.57;;;;;;;20.37;55.87;95173.84;4969535;28;20181;-78
2023/06/30 03:12:00;;;;;;;6.55;5.15;;;;;;;20.36;56.22;95173.03;4936715;28;20675;-78
2023/06/30 03:14:25;;;;;;;7.47;5.00;;;;;;;20.34;56.05;95174.28;4957275;28;20201;-79
2023/06/30 03:16:51;;;;;;;6.57;4.28;;;;;;;20.41;56.04;95174.19;4962753;28;20207;-78
2023/06/30 03:19:16;;;;;;;6.15;4.70;;;;;;;20.42;56.09;95175.84;4969292;28;20258;-79
2023/06/30 03:21:41;;;;;;;8.32;4.45;;;;;;;20.33;56.35;95165.56;4966312;28;20579;-78
2023/06/30 03:24:07;;;;;;;5.85;5.10;;;;;;;20.44;56.24;95165.91;4964672;28;20232;-79
2023/06/30 03:26:32;;;;;;;6.93;4.80;;;;;;;20.47;56.33;95168.91;4969957;28;20188;-77
2023/06/30 03:28:57;;;;;;;6.95;4.93;;;;;;;20.45;56.12;95172.78;4964729;28;20557;-78
2023/06/30 03:31:23;;;;;;;5.78;4.40;;;;;;;20.49;56.15;95166.84;4959889;28;20575;-79
2023/06/30 03:33:48;;;;;;;5.80;4.65;;;;;;;20.50;56.05;95165.03;4956579;28;20185;-79
2023/06/30 03:36:14;;;;;;;6.78;4.80;;;;;;;20.49;55.98;95164.19;4948651;28;20180;-79
2023/06/30 03:38:39;;;;;;;6.57;4.88;;;;;;;20.53;56.16;95167.22;4971139;28;20280;-79
2023/06/30 03:41:04;;;;;;;7.22;5.07;;;;;;;20.55;55.95;95168.63;4963752;28;20212;-79
2023/06/30 03:43:31;;;;;;;7.57;5.05;;;;;;;20.59;55.79;95163.72;4959138;28;20193;-78
2023/06/30 03:45:56;;;;;;;6.05;4.68;;;;;;;20.61;55.85;95169.59;4964897;28;20202;-79
2023/06/30 03:48:23;;;;;;;8.60;5.18;;;;;;;20.63;56.01;95170.97;4964929;28;20219;-79
2023/06/30 03:50:52;;;;;;;7.63;4.82;;;;;;;20.67;55.94;95165.25;4956630;28;20259;-78
2023/06/30 03:53:17;;;;;;;6.85;5.30;;;;;;;20.66;55.52;95161.81;4958324;28;20279;-79
2023/06/30 03:55:42;;;;;;;6.20;4.93;;;;;;;20.70;55.60;95164.81;4967623;28;20296;-79
2023/06/30 03:58:08;;;;;;;5.75;4.90;;;;;;;20.71;55.70;95166.44;4962335;28;20243;-79
2023/06/30 04:00:33;;;;;;;6.38;5.20;;;;;;;20.69;56.18;95163.22;4963693;28;20207;-79
2023/06/30 04:02:59;;;;;;;9.13;5.50;;;;;;;20.69;56.24;95166.66;4953557;28;20192;-78
2023/06/30 04:05:24;;;;;;;6.80;5.57;;;;;;;20.73;55.71;95161.75;4956488;28;20232;-78
2023/06/30 04:07:49;;;;;;;6.70;5.57;;;;;;;20.74;55.99;95156.22;4963990;28;20196;-81
2023/06/30 04:10:15;;;;;;;6.10;5.50;;;;;;;20.75;55.83;95152.56;4958513;28;20221;-81
2023/06/30 04:12:42;;;;;;;6.38;5.13;;;;;;;20.77;56.02;95162.94;4965124;28;20287;-81
2023/06/30 04:15:07;;;;;;;7.93;5.15;;;;;;;20.79;55.62;95166.94;4955866;28;20767;-81
2023/06/30 04:17:33;;;;;;;9.60;5.97;;;;;;;20.76;55.53;95163.94;4958831;28;20189;-82
2023/06/30 04:19:58;;;;;;;8.38;5.30;;;;;;;20.75;56.17;95165.75;4947035;28;20650;-86
2023/06/30 04:22:23;;;;;;;7.05;6.00;;;;;;;20.75;56.36;95170.22;4938945;28;20279;-85
2023/06/30 04:24:49;;;;;;;7.72;5.93;;;;;;;20.71;56.52;95169.88;4957610;28;20208;-85
2023/06/30 04:27:14;;;;;;;6.55;5.53;;;;;;;20.74;56.35;95179.19;4974454;28;20251;-85
2023/06/30 04:29:39;;;;;;;7.72;5.38;;;;;;;20.74;55.96;95174.72;4974424;28;20185;-85
2023/06/30 04:32:05;;;;;;;10.07;5.25;;;;;;;20.72;56.38;95175.97;4972696;28;20192;-86
2023/06/30 04:34:30;;;;;;;9.63;5.82;;;;;;;20.72;56.41;95171.47;4955963;28;20214;-85
2023/06/30 04:36:56;;;;;;;7.15;5.90;;;;;;;20.73;55.86;95174.94;4955450;28;20268;-84
2023/06/30 04:39:22;;;;;;;9.40;5.60;;;;;;;20.75;56.76;95178.16;4958430;28;20316;-86
2023/06/30 04:41:47;;;;;;;7.75;5.85;;;;;;;20.74;57.16;95176.53;4935972;28;20662;-85
2023/06/30 04:44:12;;;;;;;9.02;6.28;;;;;;;20.60;58.49;95183.81;4958970;28;20216;-86
2023/06/30 04:46:38;;;;;;;6.93;6.03;;;;;;;20.68;59.17;95174.81;4969969;28;20212;-85
2023/06/30 04:49:04;;;;;;;7.15;6.32;;;;;;;20.70;59.51;95183.28;4968082;28;20652;-84
2023/06/30 04:51:29;;;;;;;8.13;6.75;;;;;;;20.64;58.55;95179.69;4976615;28;20219;-85
2023/06/30 04:53:55;;;;;;;7.70;5.90;;;;;;;20.69;58.64;95182.50;4942477;28;20741;-85
2023/06/30 04:56:20;;;;;;;10.32;6.50;;;;;;;20.74;58.51;95177.34;4974374;28;20195;-85
2023/06/30 04:58:45;;;;;;;9.80;7.47;;;;;;;20.68;59.78;95180.06;4975611;28;20189;-84
2023/06/30 05:01:11;;;;;;;8.07;7.20;;;;;;;20.67;60.88;95183.72;4960417;28;20200;-82
2023/06/30 05:03:36;;;;;;;8.40;6.95;;;;;;;20.72;61.72;95178.59;4973454;28;20193;-80
2023/06/30 05:06:02;;;;;;;8.70;7.13;;;;;;;20.77;61.83;95181.41;4946822;28;20622;-82
2023/06/30 05:08:27;;;;;;;6.78;5.88;;;;;;;20.82;60.60;95171.78;4960400;28;20253;-81
2023/06/30 05:10:52;;;;;;;10.07;6.63;;;;;;;20.91;60.53;95172.28;4965121;28;20263;-82
2023/06/30 05:13:18;;;;;;;7.72;6.53;;;;;;;21.03;59.47;95173.19;4940043;28;20597;-80
2023/06/30 05:15:44;;;;;;;9.43;6.57;;;;;;;21.04;59.59;95172.16;4951987;28;20212;-81
2023/06/30 05:18:09;;;;;;;8.85;7.30;;;;;;;21.02;59.37;95176.81;4973574;28;20201;-82
2023/06/30 05:20:36;;;;;;;9.98;6.50;;;;;;;21.09;58.84;95174.09;4935944;28;20189;-81
2023/06/30 05:23:01;;;;;;;8.02;7.15;;;;;;;20.98;59.13;95177.50;4964551;28;20192;-81
2023/06/30 05:25:27;;;;;;;9.77;8.30;;;;;;;21.12;58.20;95177.13;4952536;28;20553;-81
2023/06/30 05:27:52;;;;;;;11.57;8.25;;;;;;;21.23;58.00;95180.84;4972308;28;20320;-81
2023/06/30 05:30:18;;;;;;;9.82;7.82;;;;;;;21.31;58.01;95177.13;4960939;28;20204;-82
2023/06/30 05:32:43;;;;;;;11.35;8.50;;;;;;;21.40;57.46;95173.16;4981040;28;20180;-82
2023/06/30 05:35:09;;;;;;;13.38;8.10;;;;;;;21.46;57.71;95175.69;4951158;28;20579;-81
2023/06/30 05:37:35;;;;;;;10.32;8.57;;;;;;;21.47;57.86;95181.78;4958239;28;20187;-81
2023/06/30 05:40:01;;;;;;;13.52;8.43;;;;;;;21.44;57.14;95180.38;4966223;28;20189;-81
2023/06/30 05:42:26;;;;;;;10.13;8.88;;;;;;;21.32;57.52;95181.38;4977374;28;20208;-80
2023/06/30 05:44:51;;;;;;;10.68;8.80;;;;;;;21.34;57.47;95187.25;4940675;28;20230;-81
2023/06/30 05:47:17;;;;;;;11.68;9.30;;;;;;;21.31;58.22;95193.78;4979234;28;20224;-80
2023/06/30 05:49:42;;;;;;;13.55;9.88;;;;;;;21.32;58.37;95197.22;4973870;28;20205;-81
2023/06/30 05:52:07;;;;;;;12.32;9.40;;;;;;;21.14;59.82;95195.38;4965882;28;20232;-81
2023/06/30 05:54:33;;;;;;;16.15;11.10;;;;;;;21.09;60.37;95190.75;4964110;28;20253;-81
2023/06/30 05:56:58;;;;;;;14.80;10.93;;;;;;;20.96;62.09;95192.75;4972954;28;20193;-82
2023/06/30 05:59:23;;;;;;;12.45;10.55;;;;;;;20.76;63.00;95195.59;4980705;28;20192;-82
2023/06/30 06:01:49;;;;;;;13.50;11.30;;;;;;;20.73;64.72;95199.47;4973213;28;20205;-81
2023/06/30 06:04:18;;;;;;;17.27;11.63;;;;;;;20.35;65.84;95199.63;4971138;28;20240;-83
2023/06/30 06:06:46;;;;;;;14.07;11.38;;;;;;;20.67;66.26;95202.19;4976310;28;20567;-82
2023/06/30 06:09:11;;;;;;;15.35;11.25;;;;;;;20.47;67.97;95205.81;4972741;28;20213;-82
2023/06/30 06:11:37;;;;;;;16.65;12.23;;;;;;;20.59;69.66;95209.38;4963708;28;20180;-83
2023/06/30 06:14:03;;;;;;;15.38;12.23;;;;;;;20.70;69.26;95204.41;4962564;28;20307;-84
2023/06/30 06:16:28;;;;;;;15.82;11.40;;;;;;;20.62;70.38;95197.56;4967167;28;20204;-83
2023/06/30 06:18:53;;;;;;;14.80;11.85;;;;;;;20.81;70.59;95201.03;4968175;28;20731;-85
2023/06/30 06:21:19;;;;;;;13.77;12.25;;;;;;;20.89;70.62;95204.19;4962056;28;20205;-83
2023/06/30 06:23:44;;;;;;;14.52;13.05;;;;;;;20.60;72.00;95211.00;4930344;28;20199;-83
2023/06/30 06:26:09;;;;;;;16.05;13.18;;;;;;;20.63;72.28;95210.53;4971613;28;20189;-84
2023/06/30 06:28:34;;;;;;;19.13;13.32;;;;;;;20.70;72.38;95214.97;4964941;28;20192;-83
2023/06/30 06:31:00;;;;;;;16.83;13.65;;;;;;;20.70;72.55;95214.97;4967940;28;20185;-84
2023/06/30 06:33:25;;;;;;;14.25;12.75;;;;;;;20.51;73.50;95217.56;4942614;28;20192;-83
2023/06/30 06:35:51;;;;;;;18.80;13.88;;;;;;;20.48;74.16;95223.25;4969346;28;20212;-83
2023/06/30 06:38:18;;;;;;;19.05;13.63;;;;;;;20.42;74.09;95231.22;4962967;28;20193;-83
2023/06/30 06:40:46;;;;;;;17.30;13.20;;;;;;;20.52;74.47;95224.44;4948142;28;20174;-83
2023/06/30 06:43:12;;;;;;;14.35;12.48;;;;;;;20.66;75.55;95235.66;4945474;28;20348;-82
2023/06/30 06:45:37;;;;;;;15.13;12.13;;;;;;;20.71;75.79;95232.41;4947600;28;20256;-82
2023/06/30 06:48:19;;;;;;;13.45;11.73;;;;;;;20.49;73.79;95235.41;4968196;28;20202;-83
2023/06/30 06:50:48;;;;;;;10.93;9.80;;;;;;;20.42;71.48;95234.66;4973705;28;20633;-82
2023/06/30 06:53:19;;;;;;;12.27;10.65;;;;;;;20.64;72.71;95241.16;4954803;28;20192;-83
2023/06/30 06:55:48;;;;;;;12.82;10.70;;;;;;;20.65;73.48;95249.88;4970137;28;20207;-83
2023/06/30 06:58:13;;;;;;;13.07;10.13;;;;;;;20.52;73.78;95250.81;4973803;28;20227;-83
2023/06/30 07:00:39;;;;;;;11.85;9.98;;;;;;;20.44;74.71;95259.00;4967236;28;20192;-82
2023/06/30 07:03:04;;;;;;;14.00;11.57;;;;;;;20.16;72.33;95258.59;4943071;28;20193;-82
2023/06/30 07:05:31;;;;;;;12.73;10.68;;;;;;;20.44;71.98;95264.28;4970700;28;20589;-82
2023/06/30 07:07:56;;;;;;;15.93;12.50;;;;;;;20.48;72.23;95268.09;4965334;28;20195;-82
2023/06/30 07:10:22;;;;;;;17.42;12.88;;;;;;;20.22;73.20;95266.44;4970465;28;20192;-82
2023/06/30 07:12:47;;;;;;;15.10;13.07;;;;;;;20.40;72.96;95270.97;4968762;28;20821;-82
2023/06/30 07:15:12;;;;;;;18.13;13.88;;;;;;;20.36;72.29;95275.88;4959064;28;20702;-83
2023/06/30 07:17:38;;;;;;;16.13;13.15;;;;;;;20.34;72.33;95274.47;4958281;28;20232;-81
2023/06/30 07:20:03;;;;;;;16.83;14.07;;;;;;;20.32;73.48;95279.16;4966857;28;20216;-81
2023/06/30 07:22:28;;;;;;;16.75;13.80;;;;;;;20.19;73.76;95272.16;4967427;28;20208;-82
2023/06/30 07:24:54;;;;;;;17.95;13.20;;;;;;;20.18;74.27;95275.81;4963249;28;20924;-83
2023/06/30 07:27:19;;;;;;;17.05;13.25;;;;;;;20.21;74.89;95275.38;4970789;28;20185;-81
2023/06/30 07:29:47;;;;;;;17.50;14.82;;;;;;;20.08;75.31;95278.13;4958353;28;20613;-81
2023/06/30 07:32:12;;;;;;;18.13;14.07;;;;;;;20.06;75.98;95283.59;4968042;28;20191;-82
2023/06/30 07:34:38;;;;;;;16.33;13.73;;;;;;;20.04;76.50;95282.19;4959053;28;20204;-81
2023/06/30 07:37:03;;;;;;;18.30;13.68;;;;;;;20.03;76.98;95289.28;4956942;28;20569;-82
2023/06/30 07:39:28;;;;;;;16.52;13.40;;;;;;;20.05;77.07;95291.69;4955223;28;20196;-80
2023/06/30 07:41:53;;;;;;;18.42;15.05;;;;;;;19.72;79.25;95291.91;4955716;28;20208;-80
2023/06/30 07:44:20;;;;;;;20.02;15.15;;;;;;;19.42;81.70;95305.56;4942944;28;20213;-80
2023/06/30 07:46:45;;;;;;;18.85;14.48;;;;;;;19.19;82.65;95302.59;4967629;28;20191;-81
2023/06/30 07:49:11;;;;;;;15.90;13.70;;;;;;;19.14;83.90;95299.78;4971614;28;20184;-83
2023/06/30 07:51:36;;;;;;;17.58;14.20;;;;;;;18.88;86.39;95301.44;4965811;28;20197;-81
2023/06/30 07:54:02;;;;;;;17.10;14.85;;;;;;;18.96;86.96;95303.06;4941374;28;20240;-81
2023/06/30 07:56:27;;;;;;;16.85;13.55;;;;;;;18.78;87.50;95300.25;4942609;28;20193;-81
2023/06/30 07:58:52;;;;;;;18.33;15.25;;;;;;;18.82;88.24;95302.28;4965254;28;20960;-81
2023/06/30 08:01:17;;;;;;;17.85;14.57;;;;;;;18.79;87.95;95299.22;4971572;28;20197;-81
2023/06/30 08:03:43;;;;;;;19.45;15.65;;;;;;;18.84;88.09;95300.25;4963477;28;20574;-80
2023/06/30 08:06:08;;;;;;;17.65;15.68;;;;;;;18.90;89.01;95299.41;4967914;28;20184;-81
2023/06/30 08:08:33;;;;;;;19.38;15.70;;;;;;;18.99;88.26;95304.47;4954634;28;20199;-81
2023/06/30 08:10:59;;;;;;;19.48;15.50;;;;;;;19.03;88.40;95298.59;4947989;28;20666;-81
2023/06/30 08:13:25;;;;;;;18.05;15.70;;;;;;;19.04;87.85;95294.94;4940287;28;20227;-82
2023/06/30 08:15:51;;;;;;;20.30;16.70;;;;;;;19.21;87.70;95306.66;4942236;28;20220;-81
2023/06/30 08:18:16;;;;;;;22.75;15.70;;;;;;;19.22;87.45;95310.09;4945381;28;20184;-81
2023/06/30 08:20:41;;;;;;;17.27;14.90;;;;;;;19.18;86.71;95314.16;4939150;28;20201;-81
2023/06/30 08:23:07;;;;;;;16.95;14.90;;;;;;;19.20;87.80;95306.84;4965065;28;20670;-81
2023/06/30 08:25:32;;;;;;;18.20;14.07;;;;;;;19.38;86.65;95317.53;4951213;28;20437;-82
2023/06/30 08:27:57;;;;;;;17.15;14.90;;;;;;;19.38;85.98;95301.72;4968550;28;20212;-81
2023/06/30 08:30:23;;;;;;;17.25;14.10;;;;;;;19.32;87.16;95309.66;4967333;28;20594;-82
2023/06/30 08:32:48;;;;;;;17.77;13.35;;;;;;;19.34;87.50;95304.97;4975701;28;20207;-83
2023/06/30 08:35:14;;;;;;;17.48;13.93;;;;;;;19.53;87.18;95307.56;4972547;28;20231;-82
2023/06/30 08:37:39;;;;;;;15.43;13.70;;;;;;;19.64;86.26;95310.59;4969112;28;20189;-82
2023/06/30 08:40:05;;;;;;;15.93;14.23;;;;;;;19.41;87.26;95308.41;4975395;28;20580;-82
2023/06/30 08:42:31;;;;;;;14.93;13.20;;;;;;;19.63;87.38;95311.59;4952666;28;20311;-82
2023/06/30 08:44:59;;;;;;;16.08;13.15;;;;;;;19.71;86.38;95314.81;4973301;28;20717;-81
2023/06/30 08:47:28;;;;;;;17.38;14.48;;;;;;;19.90;85.73;95309.66;4971215;28;20336;-81
2023/06/30 08:49:54;;;;;;;18.35;13.63;;;;;;;19.80;86.66;95310.09;4951846;28;20193;-82
2023/06/30 08:52:19;;;;;;;16.20;13.65;;;;;;;19.84;86.91;95303.38;4960283;28;20185;-81
2023/06/30 08:54:45;;;;;;;15.23;13.55;;;;;;;19.93;87.27;95302.13;4948895;28;20341;-82
2023/06/30 08:57:15;;;;;;;16.33;12.55;;;;;;;20.11;85.81;95300.59;4963578;28;20212;-82
2023/06/30 08:59:44;;;;;;;16.38;12.95;;;;;;;20.10;85.01;95299.78;4943737;28;20192;-82
2023/06/30 09:02:10;;;;;;;16.38;13.43;;;;;;;20.18;85.17;95296.91;4949508;28;20226;-82
2023/06/30 09:04:37;;;;;;;14.95;13.15;;;;;;;20.18;84.28;95296.09;4973227;28;20239;-81
2023/06/30 09:07:05;;;;;;;18.90;14.98;;;;;;;20.17;84.81;95294.47;4971352;28;20188;-81
2023/06/30 09:09:42;;;;;;;18.50;16.05;;;;;;;20.11;85.27;95297.97;4952812;28;20188;-80
2023/06/30 09:12:08;;;;;;;20.83;18.13;;;;;;;19.98;85.33;95298.88;4942891;28;20192;-80
2023/06/30 09:14:36;;;;;;;21.67;18.50;;;;;;;19.82;87.90;95296.72;4952514;28;20237;-80
2023/06/30 09:17:01;;;;;;;24.17;19.85;;;;;;;19.74;87.51;95297.75;4945753;28;20189;-81
2023/06/30 09:19:27;;;;;;;24.73;20.90;;;;;;;19.67;88.89;95299.63;4956775;28;20189;-81
2023/06/30 09:21:53;;;;;;;24.92;20.98;;;;;;;19.71;88.93;95292.94;4967284;28;20220;-81
2023/06/30 09:24:18;;;;;;;26.70;22.42;;;;;;;19.78;88.43;95288.41;4942773;28;20234;-81
2023/06/30 09:26:44;;;;;;;28.27;24.13;;;;;;;19.75;88.95;95297.56;4946939;28;20222;-80
2023/06/30 09:29:10;;;;;;;29.73;23.98;;;;;;;19.72;88.21;95286.63;4970328;28;20941;-82
2023/06/30 09:31:35;;;;;;;33.33;24.77;;;;;;;19.70;88.54;95293.91;4959362;28;20276;-81
2023/06/30 09:34:10;;;;;;;28.00;23.17;;;;;;;19.95;88.85;95292.16;4942988;28;20220;-80
2023/06/30 09:36:37;;;;;;;29.75;24.70;;;;;;;19.88;87.90;95296.69;4942419;28;20260;-81
2023/06/30 09:39:05;;;;;;;30.98;25.77;;;;;;;20.04;87.97;95290.88;4944617;28;20216;-81
2023/06/30 09:41:31;;;;;;;29.73;25.60;;;;;;;19.98;88.60;95283.84;4962512;28;20249;-81
2023/06/30 09:43:57;;;;;;;30.10;25.88;;;;;;;20.05;86.74;95289.06;4957845;28;20621;-82
2023/06/30 09:46:23;;;;;;;31.98;25.88;;;;;;;20.31;86.23;95285.44;4947273;28;20248;-82
2023/06/30 09:48:53;;;;;;;30.10;24.05;;;;;;;20.55;84.99;95286.50;4972083;28;20193;-82
2023/06/30 09:51:20;;;;;;;30.90;26.20;;;;;;;20.52;84.49;95289.59;4972046;28;20814;-81
2023/06/30 09:53:46;;;;;;;32.75;26.23;;;;;;;20.31;86.18;95288.06;4950170;28;20662;-82
2023/06/30 09:56:20;;;;;;;31.27;26.73;;;;;;;20.36;85.34;95296.16;4973416;28;20192;-82
2023/06/30 09:58:46;;;;;;;31.33;26.42;;;;;;;20.34;85.92;95291.13;4970276;28;20298;-81
2023/06/30 10:01:11;;;;;;;34.30;27.25;;;;;;;20.39;86.30;95287.81;4969079;28;20694;-81
2023/06/30 10:03:47;;;;;;;36.78;27.42;;;;;;;20.65;84.95;95285.00;4973013;28;20574;-82
2023/06/30 10:06:13;;;;;;;32.17;26.70;;;;;;;20.57;85.72;95295.81;4964635;28;20211;-81
2023/06/30 10:08:38;;;;;;;32.03;27.10;;;;;;;20.79;84.53;95290.97;4972162;28;20630;-81
2023/06/30 10:11:04;;;;;;;32.40;27.15;;;;;;;20.90;84.82;95287.59;4970157;28;20557;-82
2023/06/30 10:13:29;;;;;;;29.88;25.55;;;;;;;20.90;83.12;95279.69;4967128;28;20276;-81
2023/06/30 10:15:56;;;;;;;32.17;27.38;;;;;;;20.68;84.34;95301.44;4966766;28;20252;-80
2023/06/30 10:18:22;;;;;;;32.97;27.13;;;;;;;20.72;83.25;95297.34;4951839;28;20189;-81
2023/06/30 10:20:47;;;;;;;35.78;26.70;;;;;;;20.79;83.67;95292.81;4956467;28;20625;-82
2023/06/30 10:23:13;;;;;;;29.70;25.80;;;;;;;20.75;84.25;95296.88;4957398;28;20236;-81
2023/06/30 10:25:38;;;;;;;33.78;26.58;;;;;;;20.69;83.84;95300.41;4964671;28;20208;-82
2023/06/30 10:28:04;;;;;;;32.67;26.40;;;;;;;20.61;83.91;95298.84;4971968;28;20629;-81
2023/06/30 10:30:30;;;;;;;32.35;26.05;;;;;;;20.53;85.14;95301.75;4956696;28;20549;-81
2023/06/30 10:32:56;;;;;;;31.02;25.27;;;;;;;20.41;85.59;95295.50;4942207;28;20180;-82
2023/06/30 10:35:21;;;;;;;30.73;26.23;;;;;;;20.53;84.31;95302.56;4969216;28;20221;-82
2023/06/30 10:37:47;;;;;;;33.88;25.10;;;;;;;20.46;85.13;95301.78;4963802;28;20223;-82
2023/06/30 10:40:26;;;;;;;30.40;24.55;;;;;;;20.61;84.77;95306.75;4952472;28;20542;-82
2023/06/30 10:42:54;;;;;;;33.05;27.02;;;;;;;20.58;84.59;95304.53;4970419;28;20639;-82
2023/06/30 10:45:22;;;;;;;29.73;24.67;;;;;;;20.63;85.03;95302.88;4948004;28;20236;-82
2023/06/30 10:47:50;;;;;;;32.78;25.20;;;;;;;20.72;85.06;95308.69;4972289;28;20188;-81
2023/06/30 10:50:16;;;;;;;29.15;24.52;;;;;;;20.68;84.68;95302.25;4951232;28;20591;-82
2023/06/30 10:52:51;;;;;;;30.58;25.95;;;;;;;20.54;84.62;95308.63;4959491;28;20193;-81
2023/06/30 10:55:22;;;;;;;33.92;26.23;;;;;;;20.70;84.85;95302.81;4954109;28;20246;-81
2023/06/30 10:57:49;;;;;;;31.33;23.45;;;;;;;20.68;83.82;95304.06;4963085;28;20185;-80
2023/06/30 11:00:15;;;;;;;29.77;24.60;;;;;;;20.84;83.21;95295.59;4955773;28;20278;-81
2023/06/30 11:02:57;;;;;;;29.40;24.98;;;;;;;20.70;83.31;95302.03;4968578;28;20352;-81
2023/06/30 11:05:30;;;;;;;31.40;25.17;;;;;;;20.85;82.98;95291.94;4955548;28;20220;-82
2023/06/30 11:08:01;;;;;;;31.20;26.00;;;;;;;20.77;82.08;95305.41;4942221;28;20188;-81
2023/06/30 11:10:37;;;;;;;31.42;24.65;;;;;;;20.76;83.23;95307.25;4965969;28;20188;-82
2023/06/30 11:13:05;;;;;;;35.30;25.85;;;;;;;20.56;84.02;95310.03;4938348;28;20187;-81
2023/06/30 11:15:35;;;;;;;33.25;25.17;;;;;;;20.47;82.95;95303.41;4956996;28;20232;-80
2023/06/30 11:18:01;;;;;;;29.90;25.00;;;;;;;20.44;82.91;95303.03;4966754;28;20739;-80
2023/06/30 11:20:27;;;;;;;28.73;23.48;;;;;;;20.77;82.98;95285.13;4958368;28;20193;-82